sensor_id;sensor_type;location;lat;lon;timestamp;P1;durP1;ratioP1;P2;durP2;ratioP2
27939;SDS011;15275;51.716;14.324;2022-10-16T00:01:32;8.45;;;6.55;;
27939;SDS011;15275;51.716;14.324;2022-10-16T00:03:58;8.27;;;6.45;;
27939;SDS011;15275;51.716;14.324;2022-10-16T00:06:26;7.53;;;6.45;;
27939;SDS011;15275;51.716;14.324;2022-10-16T00:08:53;10.80;;;6.88;;
27939;SDS011;15275;51.716;14.324;2022-10-16T00:11:24;7.95;;;5.88;;
27939;SDS011;15275;51.716;14.324;2022-10-16T00:13:57;7.90;;;6.53;;
27939;SDS011;15275;51.716;14.324;2022-10-16T00:16:25;8.02;;;6.15;;
27939;SDS011;15275;51.716;14.324;2022-10-16T00:18:52;8.20;;;5.75;;
27939;SDS011;15275;51.716;14.324;2022-10-16T00:21:20;8.73;;;6.40;;
27939;SDS011;15275;51.716;14.324;2022-10-16T00:23:50;9.90;;;6.28;;
27939;SDS011;15275;51.716;14.324;2022-10-16T00:26:21;7.50;;;5.63;;
27939;SDS011;15275;51.716;14.324;2022-10-16T00:28:48;11.43;;;5.63;;
27939;SDS011;15275;51.716;14.324;2022-10-16T00:31:16;11.25;;;5.22;;
27939;SDS011;15275;51.716;14.324;2022-10-16T00:33:44;8.20;;;6.35;;
27939;SDS011;15275;51.716;14.324;2022-10-16T00:36:11;8.73;;;5.85;;
27939;SDS011;15275;51.716;14.324;2022-10-16T00:38:39;8.52;;;6.05;;
27939;SDS011;15275;51.716;14.324;2022-10-16T00:41:10;7.63;;;5.72;;
27939;SDS011;15275;51.716;14.324;2022-10-16T00:43:44;7.68;;;5.63;;
27939;SDS011;15275;51.716;14.324;2022-10-16T00:46:15;7.70;;;5.97;;
27939;SDS011;15275;51.716;14.324;2022-10-16T00:48:55;10.18;;;6.25;;
27939;SDS011;15275;51.716;14.324;2022-10-16T00:51:36;9.45;;;6.20;;
27939;SDS011;15275;51.716;14.324;2022-10-16T00:54:08;7.63;;;5.80;;
27939;SDS011;15275;51.716;14.324;2022-10-16T00:56:45;9.40;;;6.15;;
27939;SDS011;15275;51.716;14.324;2022-10-16T00:59:16;10.50;;;5.72;;
27939;SDS011;15275;51.716;14.324;2022-10-16T01:02:06;7.97;;;6.13;;
27939;SDS011;15275;51.716;14.324;2022-10-16T01:04:40;7.03;;;5.53;;
27939;SDS011;15275;51.716;14.324;2022-10-16T01:07:22;7.13;;;5.93;;
27939;SDS011;15275;51.716;14.324;2022-10-16T01:15:34;7.45;;;5.78;;
27939;SDS011;15275;51.716;14.324;2022-10-16T01:20:56;8.68;;;5.95;;
27939;SDS011;15275;51.716;14.324;2022-10-16T01:27:13;9.00;;;5.45;;
27939;SDS011;15275;51.716;14.324;2022-10-16T01:29:54;9.40;;;5.70;;
27939;SDS011;15275;51.716;14.324;2022-10-16T01:35:09;7.20;;;6.03;;
27939;SDS011;15275;51.716;14.324;2022-10-16T01:38:06;8.52;;;5.35;;
27939;SDS011;15275;51.716;14.324;2022-10-16T01:40:56;8.90;;;6.57;;
27939;SDS011;15275;51.716;14.324;2022-10-16T01:46:17;7.43;;;5.68;;
27939;SDS011;15275;51.716;14.324;2022-10-16T01:48:45;9.35;;;5.97;;
27939;SDS011;15275;51.716;14.324;2022-10-16T01:51:14;9.55;;;6.53;;
27939;SDS011;15275;51.716;14.324;2022-10-16T01:53:43;8.10;;;6.20;;
27939;SDS011;15275;51.716;14.324;2022-10-16T01:56:14;6.30;;;4.85;;
27939;SDS011;15275;51.716;14.324;2022-10-16T01:58:44;7.85;;;6.15;;
27939;SDS011;15275;51.716;14.324;2022-10-16T02:01:16;7.78;;;6.28;;
27939;SDS011;15275;51.716;14.324;2022-10-16T02:03:46;7.82;;;6.07;;
27939;SDS011;15275;51.716;14.324;2022-10-16T02:06:15;7.70;;;6.00;;
27939;SDS011;15275;51.716;14.324;2022-10-16T02:08:41;10.25;;;6.75;;
27939;SDS011;15275;51.716;14.324;2022-10-16T02:11:09;7.38;;;5.80;;
27939;SDS011;15275;51.716;14.324;2022-10-16T02:16:10;7.40;;;6.10;;
27939;SDS011;15275;51.716;14.324;2022-10-16T02:18:39;9.77;;;6.43;;
27939;SDS011;15275;51.716;14.324;2022-10-16T02:23:54;9.90;;;5.90;;
27939;SDS011;15275;51.716;14.324;2022-10-16T02:29:38;8.18;;;6.47;;
27939;SDS011;15275;51.716;14.324;2022-10-16T02:32:10;8.15;;;6.35;;
27939;SDS011;15275;51.716;14.324;2022-10-16T02:34:40;8.23;;;6.65;;
27939;SDS011;15275;51.716;14.324;2022-10-16T02:37:07;7.95;;;6.32;;
27939;SDS011;15275;51.716;14.324;2022-10-16T02:39:33;8.82;;;6.53;;
27939;SDS011;15275;51.716;14.324;2022-10-16T02:42:00;10.10;;;6.90;;
27939;SDS011;15275;51.716;14.324;2022-10-16T02:44:26;8.32;;;6.65;;
27939;SDS011;15275;51.716;14.324;2022-10-16T02:46:52;7.65;;;6.15;;
27939;SDS011;15275;51.716;14.324;2022-10-16T02:49:17;8.38;;;6.25;;
27939;SDS011;15275;51.716;14.324;2022-10-16T02:51:43;8.38;;;6.93;;
27939;SDS011;15275;51.716;14.324;2022-10-16T02:54:09;7.70;;;6.65;;
27939;SDS011;15275;51.716;14.324;2022-10-16T02:56:35;8.00;;;6.60;;
27939;SDS011;15275;51.716;14.324;2022-10-16T02:59:01;9.02;;;6.53;;
27939;SDS011;15275;51.716;14.324;2022-10-16T03:01:27;10.18;;;7.53;;
27939;SDS011;15275;51.716;14.324;2022-10-16T03:03:53;8.30;;;7.03;;
27939;SDS011;15275;51.716;14.324;2022-10-16T03:06:19;9.05;;;6.85;;
27939;SDS011;15275;51.716;14.324;2022-10-16T03:08:45;8.48;;;6.70;;
27939;SDS011;15275;51.716;14.324;2022-10-16T03:11:10;9.32;;;6.72;;
27939;SDS011;15275;51.716;14.324;2022-10-16T03:13:36;9.82;;;6.97;;
27939;SDS011;15275;51.716;14.324;2022-10-16T03:16:02;8.65;;;7.15;;
27939;SDS011;15275;51.716;14.324;2022-10-16T03:18:28;12.35;;;6.93;;
27939;SDS011;15275;51.716;14.324;2022-10-16T03:20:54;11.98;;;7.40;;
27939;SDS011;15275;51.716;14.324;2022-10-16T03:23:19;7.45;;;6.68;;
27939;SDS011;15275;51.716;14.324;2022-10-16T03:25:45;7.47;;;5.97;;
27939;SDS011;15275;51.716;14.324;2022-10-16T03:28:11;7.10;;;5.93;;
27939;SDS011;15275;51.716;14.324;2022-10-16T03:30:37;7.75;;;6.40;;
27939;SDS011;15275;51.716;14.324;2022-10-16T03:33:04;7.68;;;6.70;;
27939;SDS011;15275;51.716;14.324;2022-10-16T03:35:31;8.00;;;6.60;;
27939;SDS011;15275;51.716;14.324;2022-10-16T03:37:57;13.88;;;6.85;;
27939;SDS011;15275;51.716;14.324;2022-10-16T03:40:23;7.53;;;6.72;;
27939;SDS011;15275;51.716;14.324;2022-10-16T03:42:49;6.82;;;5.88;;
27939;SDS011;15275;51.716;14.324;2022-10-16T03:45:15;7.75;;;6.65;;
27939;SDS011;15275;51.716;14.324;2022-10-16T03:47:41;7.10;;;6.15;;
27939;SDS011;15275;51.716;14.324;2022-10-16T03:50:07;9.02;;;6.68;;
27939;SDS011;15275;51.716;14.324;2022-10-16T03:52:33;8.18;;;6.95;;
27939;SDS011;15275;51.716;14.324;2022-10-16T03:54:59;8.70;;;6.63;;
27939;SDS011;15275;51.716;14.324;2022-10-16T03:57:25;8.10;;;6.68;;
27939;SDS011;15275;51.716;14.324;2022-10-16T03:59:51;7.05;;;5.90;;
27939;SDS011;15275;51.716;14.324;2022-10-16T04:02:17;8.65;;;6.20;;
27939;SDS011;15275;51.716;14.324;2022-10-16T04:04:42;7.57;;;6.32;;
27939;SDS011;15275;51.716;14.324;2022-10-16T04:07:08;8.85;;;6.70;;
27939;SDS011;15275;51.716;14.324;2022-10-16T04:09:34;8.13;;;6.32;;
27939;SDS011;15275;51.716;14.324;2022-10-16T04:12:00;9.65;;;6.85;;
27939;SDS011;15275;51.716;14.324;2022-10-16T04:14:26;8.65;;;6.82;;
27939;SDS011;15275;51.716;14.324;2022-10-16T04:16:51;7.63;;;6.60;;
27939;SDS011;15275;51.716;14.324;2022-10-16T04:19:17;7.22;;;6.45;;
27939;SDS011;15275;51.716;14.324;2022-10-16T04:21:43;7.72;;;6.40;;
27939;SDS011;15275;51.716;14.324;2022-10-16T04:24:09;6.90;;;6.18;;
27939;SDS011;15275;51.716;14.324;2022-10-16T04:26:36;10.02;;;6.75;;
27939;SDS011;15275;51.716;14.324;2022-10-16T04:29:02;7.93;;;6.57;;
27939;SDS011;15275;51.716;14.324;2022-10-16T04:31:28;8.48;;;7.13;;
27939;SDS011;15275;51.716;14.324;2022-10-16T04:33:54;9.60;;;6.65;;
27939;SDS011;15275;51.716;14.324;2022-10-16T04:36:20;9.02;;;7.38;;
27939;SDS011;15275;51.716;14.324;2022-10-16T04:38:45;10.82;;;6.38;;
27939;SDS011;15275;51.716;14.324;2022-10-16T04:41:11;7.95;;;6.72;;
27939;SDS011;15275;51.716;14.324;2022-10-16T04:43:37;6.82;;;6.13;;
27939;SDS011;15275;51.716;14.324;2022-10-16T04:46:03;9.13;;;6.40;;
27939;SDS011;15275;51.716;14.324;2022-10-16T04:48:29;8.98;;;6.18;;
27939;SDS011;15275;51.716;14.324;2022-10-16T04:50:56;7.25;;;6.38;;
27939;SDS011;15275;51.716;14.324;2022-10-16T04:53:22;8.15;;;6.22;;
27939;SDS011;15275;51.716;14.324;2022-10-16T04:55:48;14.90;;;9.43;;
27939;SDS011;15275;51.716;14.324;2022-10-16T04:58:14;15.32;;;11.07;;
27939;SDS011;15275;51.716;14.324;2022-10-16T05:00:40;19.02;;;10.65;;
27939;SDS011;15275;51.716;14.324;2022-10-16T05:03:06;16.88;;;10.75;;
27939;SDS011;15275;51.716;14.324;2022-10-16T05:05:33;20.60;;;13.73;;
27939;SDS011;15275;51.716;14.324;2022-10-16T05:08:00;20.30;;;13.82;;
27939;SDS011;15275;51.716;14.324;2022-10-16T05:10:26;18.80;;;12.27;;
27939;SDS011;15275;51.716;14.324;2022-10-16T05:12:53;15.70;;;10.07;;
27939;SDS011;15275;51.716;14.324;2022-10-16T05:15:18;12.95;;;8.65;;
27939;SDS011;15275;51.716;14.324;2022-10-16T05:17:44;10.30;;;8.38;;
27939;SDS011;15275;51.716;14.324;2022-10-16T05:20:11;10.85;;;7.60;;
27939;SDS011;15275;51.716;14.324;2022-10-16T05:22:38;10.35;;;7.13;;
27939;SDS011;15275;51.716;14.324;2022-10-16T05:25:04;9.93;;;7.28;;
27939;SDS011;15275;51.716;14.324;2022-10-16T05:27:30;8.52;;;7.70;;
27939;SDS011;15275;51.716;14.324;2022-10-16T05:29:56;7.90;;;7.05;;
27939;SDS011;15275;51.716;14.324;2022-10-16T05:32:22;7.70;;;6.72;;
27939;SDS011;15275;51.716;14.324;2022-10-16T05:34:48;9.45;;;6.55;;
27939;SDS011;15275;51.716;14.324;2022-10-16T05:37:13;9.88;;;7.43;;
27939;SDS011;15275;51.716;14.324;2022-10-16T05:39:39;8.73;;;7.28;;
27939;SDS011;15275;51.716;14.324;2022-10-16T05:42:05;11.00;;;7.25;;
27939;SDS011;15275;51.716;14.324;2022-10-16T05:44:31;7.68;;;6.85;;
27939;SDS011;15275;51.716;14.324;2022-10-16T05:46:57;11.27;;;7.80;;
27939;SDS011;15275;51.716;14.324;2022-10-16T05:49:23;11.85;;;7.60;;
27939;SDS011;15275;51.716;14.324;2022-10-16T05:51:49;8.27;;;7.22;;
27939;SDS011;15275;51.716;14.324;2022-10-16T05:54:15;8.75;;;7.57;;
27939;SDS011;15275;51.716;14.324;2022-10-16T05:56:40;8.85;;;7.85;;
27939;SDS011;15275;51.716;14.324;2022-10-16T05:59:06;7.70;;;6.90;;
27939;SDS011;15275;51.716;14.324;2022-10-16T06:01:32;8.65;;;7.68;;
27939;SDS011;15275;51.716;14.324;2022-10-16T06:03:58;8.32;;;6.82;;
27939;SDS011;15275;51.716;14.324;2022-10-16T06:06:25;7.43;;;6.60;;
27939;SDS011;15275;51.716;14.324;2022-10-16T06:08:53;9.98;;;7.63;;
27939;SDS011;15275;51.716;14.324;2022-10-16T06:11:21;8.52;;;7.00;;
27939;SDS011;15275;51.716;14.324;2022-10-16T06:13:51;8.15;;;7.00;;
27939;SDS011;15275;51.716;14.324;2022-10-16T06:16:18;9.05;;;8.05;;
27939;SDS011;15275;51.716;14.324;2022-10-16T06:18:45;8.65;;;7.30;;
27939;SDS011;15275;51.716;14.324;2022-10-16T06:21:16;7.95;;;7.13;;
27939;SDS011;15275;51.716;14.324;2022-10-16T06:23:49;8.00;;;7.13;;
27939;SDS011;15275;51.716;14.324;2022-10-16T06:26:18;8.88;;;7.03;;
27939;SDS011;15275;51.716;14.324;2022-10-16T06:28:46;8.90;;;7.07;;
27939;SDS011;15275;51.716;14.324;2022-10-16T06:31:13;8.05;;;7.25;;
27939;SDS011;15275;51.716;14.324;2022-10-16T06:33:39;8.20;;;7.05;;
27939;SDS011;15275;51.716;14.324;2022-10-16T06:36:07;11.82;;;7.15;;
27939;SDS011;15275;51.716;14.324;2022-10-16T06:38:36;11.05;;;7.13;;
27939;SDS011;15275;51.716;14.324;2022-10-16T06:41:02;7.32;;;6.40;;
27939;SDS011;15275;51.716;14.324;2022-10-16T06:43:29;6.93;;;6.22;;
27939;SDS011;15275;51.716;14.324;2022-10-16T06:46:00;7.13;;;6.13;;
27939;SDS011;15275;51.716;14.324;2022-10-16T06:48:28;6.97;;;6.28;;
27939;SDS011;15275;51.716;14.324;2022-10-16T06:50:55;7.13;;;6.43;;
27939;SDS011;15275;51.716;14.324;2022-10-16T06:53:25;9.60;;;6.20;;
27939;SDS011;15275;51.716;14.324;2022-10-16T06:55:52;9.43;;;6.38;;
27939;SDS011;15275;51.716;14.324;2022-10-16T06:58:18;8.50;;;6.45;;
27939;SDS011;15275;51.716;14.324;2022-10-16T07:00:44;8.10;;;6.47;;
27939;SDS011;15275;51.716;14.324;2022-10-16T07:03:10;10.45;;;8.10;;
27939;SDS011;15275;51.716;14.324;2022-10-16T07:05:40;8.23;;;7.25;;
27939;SDS011;15275;51.716;14.324;2022-10-16T07:08:06;7.57;;;6.68;;
27939;SDS011;15275;51.716;14.324;2022-10-16T07:10:33;7.78;;;6.85;;
27939;SDS011;15275;51.716;14.324;2022-10-16T07:12:59;10.70;;;7.60;;
27939;SDS011;15275;51.716;14.324;2022-10-16T07:15:25;7.60;;;6.80;;
27939;SDS011;15275;51.716;14.324;2022-10-16T07:17:52;7.55;;;6.57;;
27939;SDS011;15275;51.716;14.324;2022-10-16T07:20:18;6.57;;;5.88;;
27939;SDS011;15275;51.716;14.324;2022-10-16T07:22:44;6.72;;;5.70;;
27939;SDS011;15275;51.716;14.324;2022-10-16T07:25:11;6.65;;;5.28;;
27939;SDS011;15275;51.716;14.324;2022-10-16T07:27:37;6.95;;;5.50;;
27939;SDS011;15275;51.716;14.324;2022-10-16T07:30:03;6.13;;;5.00;;
27939;SDS011;15275;51.716;14.324;2022-10-16T07:32:30;7.95;;;5.43;;
27939;SDS011;15275;51.716;14.324;2022-10-16T07:34:57;9.55;;;4.70;;
27939;SDS011;15275;51.716;14.324;2022-10-16T07:37:22;5.93;;;4.82;;
27939;SDS011;15275;51.716;14.324;2022-10-16T07:39:49;5.45;;;4.78;;
27939;SDS011;15275;51.716;14.324;2022-10-16T07:42:14;5.07;;;4.57;;
27939;SDS011;15275;51.716;14.324;2022-10-16T07:44:40;5.35;;;3.97;;
27939;SDS011;15275;51.716;14.324;2022-10-16T07:47:06;4.95;;;4.32;;
27939;SDS011;15275;51.716;14.324;2022-10-16T07:49:32;5.05;;;4.13;;
27939;SDS011;15275;51.716;14.324;2022-10-16T07:51:58;4.93;;;3.85;;
27939;SDS011;15275;51.716;14.324;2022-10-16T07:54:24;4.35;;;3.95;;
27939;SDS011;15275;51.716;14.324;2022-10-16T07:56:50;5.70;;;3.90;;
27939;SDS011;15275;51.716;14.324;2022-10-16T07:59:15;3.65;;;3.35;;
27939;SDS011;15275;51.716;14.324;2022-10-16T08:01:41;3.60;;;3.30;;
27939;SDS011;15275;51.716;14.324;2022-10-16T08:04:08;7.13;;;3.30;;
27939;SDS011;15275;51.716;14.324;2022-10-16T08:06:35;4.88;;;3.80;;
27939;SDS011;15275;51.716;14.324;2022-10-16T08:09:03;5.75;;;3.50;;
27939;SDS011;15275;51.716;14.324;2022-10-16T08:11:29;4.80;;;4.30;;
27939;SDS011;15275;51.716;14.324;2022-10-16T08:13:55;4.05;;;3.65;;
27939;SDS011;15275;51.716;14.324;2022-10-16T08:16:21;4.70;;;4.20;;
27939;SDS011;15275;51.716;14.324;2022-10-16T08:18:47;4.25;;;3.80;;
27939;SDS011;15275;51.716;14.324;2022-10-16T08:21:17;4.22;;;3.83;;
27939;SDS011;15275;51.716;14.324;2022-10-16T08:23:45;4.03;;;3.58;;
27939;SDS011;15275;51.716;14.324;2022-10-16T08:26:12;4.03;;;3.63;;
27939;SDS011;15275;51.716;14.324;2022-10-16T08:28:38;5.13;;;4.05;;
27939;SDS011;15275;51.716;14.324;2022-10-16T08:31:08;4.13;;;3.72;;
27939;SDS011;15275;51.716;14.324;2022-10-16T08:33:41;4.07;;;3.67;;
27939;SDS011;15275;51.716;14.324;2022-10-16T08:36:10;3.75;;;3.45;;
27939;SDS011;15275;51.716;14.324;2022-10-16T08:38:37;3.63;;;3.30;;
27939;SDS011;15275;51.716;14.324;2022-10-16T08:46:35;3.42;;;3.13;;
27939;SDS011;15275;51.716;14.324;2022-10-16T08:49:21;3.92;;;2.78;;
27939;SDS011;15275;51.716;14.324;2022-10-16T08:51:49;2.75;;;2.55;;
27939;SDS011;15275;51.716;14.324;2022-10-16T08:54:29;3.70;;;2.95;;
27939;SDS011;15275;51.716;14.324;2022-10-16T08:57:12;2.60;;;2.38;;
27939;SDS011;15275;51.716;14.324;2022-10-16T08:59:41;3.85;;;2.97;;
27939;SDS011;15275;51.716;14.324;2022-10-16T09:02:52;3.28;;;2.97;;
27939;SDS011;15275;51.716;14.324;2022-10-16T09:10:42;3.28;;;2.97;;
27939;SDS011;15275;51.716;14.324;2022-10-16T09:13:49;3.33;;;2.88;;
27939;SDS011;15275;51.716;14.324;2022-10-16T09:16:34;2.60;;;2.40;;
27939;SDS011;15275;51.716;14.324;2022-10-16T09:19:13;2.20;;;2.00;;
27939;SDS011;15275;51.716;14.324;2022-10-16T09:21:57;2.25;;;2.05;;
27939;SDS011;15275;51.716;14.324;2022-10-16T09:24:29;2.55;;;2.35;;
27939;SDS011;15275;51.716;14.324;2022-10-16T09:26:55;2.38;;;2.17;;
27939;SDS011;15275;51.716;14.324;2022-10-16T09:29:21;2.50;;;1.98;;
27939;SDS011;15275;51.716;14.324;2022-10-16T09:31:50;2.45;;;1.95;;
27939;SDS011;15275;51.716;14.324;2022-10-16T09:34:24;2.00;;;1.73;;
27939;SDS011;15275;51.716;14.324;2022-10-16T09:37:00;2.03;;;1.85;;
27939;SDS011;15275;51.716;14.324;2022-10-16T09:39:29;2.45;;;1.63;;
27939;SDS011;15275;51.716;14.324;2022-10-16T09:41:55;3.75;;;1.50;;
27939;SDS011;15275;51.716;14.324;2022-10-16T09:49:49;4.47;;;1.65;;
27939;SDS011;15275;51.716;14.324;2022-10-16T09:52:29;1.48;;;1.20;;
27939;SDS011;15275;51.716;14.324;2022-10-16T09:54:56;2.00;;;1.20;;
27939;SDS011;15275;51.716;14.324;2022-10-16T09:57:25;0.90;;;0.73;;
27939;SDS011;15275;51.716;14.324;2022-10-16T09:59:52;1.05;;;0.80;;
27939;SDS011;15275;51.716;14.324;2022-10-16T10:05:06;0.65;;;0.65;;
27939;SDS011;15275;51.716;14.324;2022-10-16T10:10:28;0.47;;;0.38;;
27939;SDS011;15275;51.716;14.324;2022-10-16T10:12:56;0.68;;;0.50;;
27939;SDS011;15275;51.716;14.324;2022-10-16T10:15:23;0.55;;;0.40;;
27939;SDS011;15275;51.716;14.324;2022-10-16T10:17:55;1.27;;;0.70;;
27939;SDS011;15275;51.716;14.324;2022-10-16T10:22:54;3.58;;;0.80;;
27939;SDS011;15275;51.716;14.324;2022-10-16T10:31:06;1.10;;;0.60;;
27939;SDS011;15275;51.716;14.324;2022-10-16T10:36:54;1.23;;;0.50;;
27939;SDS011;15275;51.716;14.324;2022-10-16T10:39:33;0.40;;;0.35;;
27939;SDS011;15275;51.716;14.324;2022-10-16T10:42:14;0.40;;;0.40;;
27939;SDS011;15275;51.716;14.324;2022-10-16T10:45:17;1.00;;;0.60;;
27939;SDS011;15275;51.716;14.324;2022-10-16T10:51:07;1.65;;;0.38;;
27939;SDS011;15275;51.716;14.324;2022-10-16T10:54:01;1.50;;;0.55;;
27939;SDS011;15275;51.716;14.324;2022-10-16T10:57:15;0.30;;;0.30;;
27939;SDS011;15275;51.716;14.324;2022-10-16T11:02:53;0.50;;;0.35;;
27939;SDS011;15275;51.716;14.324;2022-10-16T11:08:13;1.75;;;0.55;;
27939;SDS011;15275;51.716;14.324;2022-10-16T11:13:38;0.43;;;0.43;;
27939;SDS011;15275;51.716;14.324;2022-10-16T11:16:32;0.60;;;0.47;;
27939;SDS011;15275;51.716;14.324;2022-10-16T11:22:16;0.60;;;0.40;;
27939;SDS011;15275;51.716;14.324;2022-10-16T11:25:05;0.25;;;0.20;;
27939;SDS011;15275;51.716;14.324;2022-10-16T11:27:41;0.68;;;0.40;;
27939;SDS011;15275;51.716;14.324;2022-10-16T11:30:14;0.20;;;0.20;;
27939;SDS011;15275;51.716;14.324;2022-10-16T11:36:15;0.88;;;0.30;;
27939;SDS011;15275;51.716;14.324;2022-10-16T11:38:58;0.98;;;0.55;;
27939;SDS011;15275;51.716;14.324;2022-10-16T11:49:47;0.40;;;0.30;;
27939;SDS011;15275;51.716;14.324;2022-10-16T11:52:22;0.63;;;0.57;;
27939;SDS011;15275;51.716;14.324;2022-10-16T11:55:14;0.60;;;0.47;;
27939;SDS011;15275;51.716;14.324;2022-10-16T11:57:57;2.00;;;0.38;;
27939;SDS011;15275;51.716;14.324;2022-10-16T12:00:50;0.95;;;0.40;;
27939;SDS011;15275;51.716;14.324;2022-10-16T12:08:58;1.23;;;0.50;;
27939;SDS011;15275;51.716;14.324;2022-10-16T12:13:51;0.50;;;0.40;;
27939;SDS011;15275;51.716;14.324;2022-10-16T12:16:29;0.50;;;0.47;;
27939;SDS011;15275;51.716;14.324;2022-10-16T12:24:06;0.52;;;0.43;;
27939;SDS011;15275;51.716;14.324;2022-10-16T12:27:31;0.52;;;0.50;;
27939;SDS011;15275;51.716;14.324;2022-10-16T12:29:59;0.32;;;0.32;;
27939;SDS011;15275;51.716;14.324;2022-10-16T12:35:01;1.55;;;0.60;;
27939;SDS011;15275;51.716;14.324;2022-10-16T12:37:35;1.17;;;0.50;;
27939;SDS011;15275;51.716;14.324;2022-10-16T12:40:13;1.15;;;0.43;;
27939;SDS011;15275;51.716;14.324;2022-10-16T12:42:55;1.20;;;0.50;;
27939;SDS011;15275;51.716;14.324;2022-10-16T12:47:54;0.77;;;0.70;;
27939;SDS011;15275;51.716;14.324;2022-10-16T12:50:39;1.20;;;0.43;;
27939;SDS011;15275;51.716;14.324;2022-10-16T12:53:19;0.40;;;0.40;;
27939;SDS011;15275;51.716;14.324;2022-10-16T12:56:04;0.88;;;0.60;;
27939;SDS011;15275;51.716;14.324;2022-10-16T13:04:37;1.20;;;0.60;;
27939;SDS011;15275;51.716;14.324;2022-10-16T13:07:28;1.75;;;0.50;;
27939;SDS011;15275;51.716;14.324;2022-10-16T13:10:28;0.90;;;0.70;;
27939;SDS011;15275;51.716;14.324;2022-10-16T13:16:46;0.63;;;0.43;;
27939;SDS011;15275;51.716;14.324;2022-10-16T13:28:11;1.38;;;0.57;;
27939;SDS011;15275;51.716;14.324;2022-10-16T13:30:39;1.20;;;0.77;;
27939;SDS011;15275;51.716;14.324;2022-10-16T13:35:59;0.50;;;0.50;;
27939;SDS011;15275;51.716;14.324;2022-10-16T13:38:26;0.50;;;0.50;;
27939;SDS011;15275;51.716;14.324;2022-10-16T13:40:58;0.35;;;0.35;;
27939;SDS011;15275;51.716;14.324;2022-10-16T13:43:47;0.50;;;0.50;;
27939;SDS011;15275;51.716;14.324;2022-10-16T13:46:17;0.65;;;0.63;;
27939;SDS011;15275;51.716;14.324;2022-10-16T13:54:08;1.90;;;0.57;;
27939;SDS011;15275;51.716;14.324;2022-10-16T13:56:38;0.77;;;0.50;;
27939;SDS011;15275;51.716;14.324;2022-10-16T13:59:06;0.50;;;0.50;;
27939;SDS011;15275;51.716;14.324;2022-10-16T14:01:49;0.95;;;0.68;;
27939;SDS011;15275;51.716;14.324;2022-10-16T14:04:21;0.98;;;0.88;;
27939;SDS011;15275;51.716;14.324;2022-10-16T14:06:48;1.42;;;0.50;;
27939;SDS011;15275;51.716;14.324;2022-10-16T14:09:31;0.63;;;0.60;;
27939;SDS011;15275;51.716;14.324;2022-10-16T14:11:58;1.10;;;0.70;;
27939;SDS011;15275;51.716;14.324;2022-10-16T14:14:38;2.13;;;0.70;;
27939;SDS011;15275;51.716;14.324;2022-10-16T14:17:18;0.52;;;0.52;;
27939;SDS011;15275;51.716;14.324;2022-10-16T14:19:54;0.90;;;0.65;;
27939;SDS011;15275;51.716;14.324;2022-10-16T14:22:38;2.10;;;0.70;;
27939;SDS011;15275;51.716;14.324;2022-10-16T14:28:02;4.43;;;0.70;;
27939;SDS011;15275;51.716;14.324;2022-10-16T14:36:00;0.50;;;0.50;;
27939;SDS011;15275;51.716;14.324;2022-10-16T14:38:36;1.45;;;0.40;;
27939;SDS011;15275;51.716;14.324;2022-10-16T14:41:05;0.80;;;0.63;;
27939;SDS011;15275;51.716;14.324;2022-10-16T14:46:01;2.50;;;0.68;;
27939;SDS011;15275;51.716;14.324;2022-10-16T14:48:29;1.40;;;0.80;;
27939;SDS011;15275;51.716;14.324;2022-10-16T14:50:55;2.38;;;0.95;;
27939;SDS011;15275;51.716;14.324;2022-10-16T14:53:21;1.10;;;0.68;;
27939;SDS011;15275;51.716;14.324;2022-10-16T14:55:47;0.60;;;0.60;;
27939;SDS011;15275;51.716;14.324;2022-10-16T14:58:15;0.70;;;0.68;;
27939;SDS011;15275;51.716;14.324;2022-10-16T15:00:44;1.35;;;0.65;;
27939;SDS011;15275;51.716;14.324;2022-10-16T15:03:11;1.08;;;0.98;;
27939;SDS011;15275;51.716;14.324;2022-10-16T15:05:37;0.95;;;0.85;;
27939;SDS011;15275;51.716;14.324;2022-10-16T15:08:03;1.25;;;0.93;;
27939;SDS011;15275;51.716;14.324;2022-10-16T15:10:33;1.25;;;0.90;;
27939;SDS011;15275;51.716;14.324;2022-10-16T15:13:05;1.25;;;1.00;;
27939;SDS011;15275;51.716;14.324;2022-10-16T15:18:08;2.83;;;1.00;;
27939;SDS011;15275;51.716;14.324;2022-10-16T15:20:34;1.10;;;1.00;;
27939;SDS011;15275;51.716;14.324;2022-10-16T15:23:03;0.85;;;0.82;;
27939;SDS011;15275;51.716;14.324;2022-10-16T15:25:46;0.88;;;0.75;;
27939;SDS011;15275;51.716;14.324;2022-10-16T15:28:14;1.00;;;0.70;;
27939;SDS011;15275;51.716;14.324;2022-10-16T15:30:42;1.45;;;0.82;;
27939;SDS011;15275;51.716;14.324;2022-10-16T15:33:11;1.08;;;0.90;;
27939;SDS011;15275;51.716;14.324;2022-10-16T15:35:41;0.70;;;0.70;;
27939;SDS011;15275;51.716;14.324;2022-10-16T15:38:14;2.97;;;0.90;;
27939;SDS011;15275;51.716;14.324;2022-10-16T15:40:40;1.77;;;0.80;;
27939;SDS011;15275;51.716;14.324;2022-10-16T15:43:06;2.70;;;0.80;;
27939;SDS011;15275;51.716;14.324;2022-10-16T15:45:33;1.58;;;1.15;;
27939;SDS011;15275;51.716;14.324;2022-10-16T15:47:59;2.17;;;0.88;;
27939;SDS011;15275;51.716;14.324;2022-10-16T15:50:25;3.40;;;1.00;;
27939;SDS011;15275;51.716;14.324;2022-10-16T15:52:51;4.85;;;1.25;;
27939;SDS011;15275;51.716;14.324;2022-10-16T15:55:17;4.57;;;1.23;;
27939;SDS011;15275;51.716;14.324;2022-10-16T15:57:44;4.75;;;1.10;;
27939;SDS011;15275;51.716;14.324;2022-10-16T16:00:14;0.80;;;0.80;;
27939;SDS011;15275;51.716;14.324;2022-10-16T16:02:49;8.38;;;1.33;;
27939;SDS011;15275;51.716;14.324;2022-10-16T16:05:17;2.85;;;1.15;;
27939;SDS011;15275;51.716;14.324;2022-10-16T16:07:44;3.33;;;1.10;;
27939;SDS011;15275;51.716;14.324;2022-10-16T16:10:10;1.58;;;0.95;;
27939;SDS011;15275;51.716;14.324;2022-10-16T16:12:37;1.63;;;1.10;;
27939;SDS011;15275;51.716;14.324;2022-10-16T16:15:04;3.33;;;1.33;;
27939;SDS011;15275;51.716;14.324;2022-10-16T16:17:32;1.92;;;1.20;;
27939;SDS011;15275;51.716;14.324;2022-10-16T16:19:59;1.33;;;1.00;;
27939;SDS011;15275;51.716;14.324;2022-10-16T16:22:25;1.33;;;0.95;;
27939;SDS011;15275;51.716;14.324;2022-10-16T16:24:52;1.27;;;1.13;;
27939;SDS011;15275;51.716;14.324;2022-10-16T16:27:18;2.05;;;1.25;;
27939;SDS011;15275;51.716;14.324;2022-10-16T16:29:44;1.80;;;1.10;;
27939;SDS011;15275;51.716;14.324;2022-10-16T16:32:11;1.30;;;1.20;;
27939;SDS011;15275;51.716;14.324;2022-10-16T16:34:37;1.73;;;1.13;;
27939;SDS011;15275;51.716;14.324;2022-10-16T16:37:03;1.60;;;1.20;;
27939;SDS011;15275;51.716;14.324;2022-10-16T16:39:29;1.67;;;1.20;;
27939;SDS011;15275;51.716;14.324;2022-10-16T16:41:56;1.65;;;1.17;;
27939;SDS011;15275;51.716;14.324;2022-10-16T16:44:25;5.72;;;1.02;;
27939;SDS011;15275;51.716;14.324;2022-10-16T16:46:51;3.00;;;1.40;;
27939;SDS011;15275;51.716;14.324;2022-10-16T16:49:17;2.53;;;1.50;;
27939;SDS011;15275;51.716;14.324;2022-10-16T16:51:44;4.05;;;2.00;;
27939;SDS011;15275;51.716;14.324;2022-10-16T16:54:10;5.50;;;2.20;;
27939;SDS011;15275;51.716;14.324;2022-10-16T16:56:37;2.70;;;2.20;;
27939;SDS011;15275;51.716;14.324;2022-10-16T16:59:10;5.82;;;3.75;;
27939;SDS011;15275;51.716;14.324;2022-10-16T17:01:39;9.07;;;3.40;;
27939;SDS011;15275;51.716;14.324;2022-10-16T17:04:05;11.60;;;8.57;;
27939;SDS011;15275;51.716;14.324;2022-10-16T17:06:32;99.55;;;60.88;;
27939;SDS011;15275;51.716;14.324;2022-10-16T17:08:58;53.38;;;33.17;;
27939;SDS011;15275;51.716;14.324;2022-10-16T17:11:27;43.90;;;26.50;;
27939;SDS011;15275;51.716;14.324;2022-10-16T17:13:54;45.75;;;23.50;;
27939;SDS011;15275;51.716;14.324;2022-10-16T17:16:22;28.70;;;14.77;;